Terminal Aerodrome Forecast
Issued by NWS Sterling, VA

Current Version | Previous Version | Graphics & Text | Print | Product List | Glossary On
Versions: 1 2 3 4 5 6 7 8 9 10 11 12 13 14 15 16 17 18 19 20 21 22 23 24
000
FTUS41 KLWX 190500
TAFDCA
TAF
KDCA 190535Z 1906/2006 VRB04KT P6SM SCT050
     FM190800 02005KT P6SM BKN050
     FM191100 03006KT P6SM SCT050
     FM191700 09006KT P6SM SCT050
     FM192100 11007KT P6SM FEW025 BKN050=

USA.gov is the U.S. government's official web portal to all federal, state and local government web resources and services.